sensor_id;sensor_type;location;lat;lon;timestamp;P1;durP1;ratioP1;P2;durP2;ratioP2
3133;SDS011;1577;49.912;10.924;2023-02-28T00:00:04;70.87;;;7.97;;
3133;SDS011;1577;49.912;10.924;2023-02-28T00:02:40;71.82;;;8.20;;
3133;SDS011;1577;49.912;10.924;2023-02-28T00:05:08;68.47;;;7.40;;
3133;SDS011;1577;49.912;10.924;2023-02-28T00:07:34;70.78;;;7.88;;
3133;SDS011;1577;49.912;10.924;2023-02-28T00:10:00;71.40;;;8.27;;
3133;SDS011;1577;49.912;10.924;2023-02-28T00:12:25;68.90;;;7.73;;
3133;SDS011;1577;49.912;10.924;2023-02-28T00:14:51;72.30;;;7.07;;
3133;SDS011;1577;49.912;10.924;2023-02-28T00:17:17;69.30;;;7.20;;
3133;SDS011;1577;49.912;10.924;2023-02-28T00:19:48;70.85;;;8.45;;
3133;SDS011;1577;49.912;10.924;2023-02-28T00:22:15;70.75;;;7.45;;
3133;SDS011;1577;49.912;10.924;2023-02-28T00:24:42;69.20;;;7.50;;
3133;SDS011;1577;49.912;10.924;2023-02-28T00:27:08;69.32;;;7.30;;
3133;SDS011;1577;49.912;10.924;2023-02-28T00:29:33;68.97;;;7.47;;
3133;SDS011;1577;49.912;10.924;2023-02-28T00:31:59;70.60;;;7.75;;
3133;SDS011;1577;49.912;10.924;2023-02-28T00:34:25;70.70;;;7.70;;
3133;SDS011;1577;49.912;10.924;2023-02-28T00:36:50;71.83;;;7.50;;
3133;SDS011;1577;49.912;10.924;2023-02-28T00:39:16;71.47;;;8.90;;
3133;SDS011;1577;49.912;10.924;2023-02-28T00:41:42;72.60;;;7.90;;
3133;SDS011;1577;49.912;10.924;2023-02-28T00:44:07;69.03;;;7.80;;
3133;SDS011;1577;49.912;10.924;2023-02-28T00:46:33;69.97;;;7.97;;
3133;SDS011;1577;49.912;10.924;2023-02-28T00:48:59;71.50;;;8.33;;
3133;SDS011;1577;49.912;10.924;2023-02-28T00:51:24;70.00;;;8.57;;
3133;SDS011;1577;49.912;10.924;2023-02-28T00:53:50;71.70;;;7.97;;
3133;SDS011;1577;49.912;10.924;2023-02-28T00:56:16;69.70;;;7.80;;
3133;SDS011;1577;49.912;10.924;2023-02-28T00:58:41;69.83;;;7.80;;
3133;SDS011;1577;49.912;10.924;2023-02-28T01:01:07;68.33;;;6.33;;
3133;SDS011;1577;49.912;10.924;2023-02-28T01:03:33;71.75;;;8.30;;
3133;SDS011;1577;49.912;10.924;2023-02-28T01:05:59;67.40;;;6.37;;
3133;SDS011;1577;49.912;10.924;2023-02-28T01:08:24;70.80;;;7.53;;
3133;SDS011;1577;49.912;10.924;2023-02-28T01:10:51;69.65;;;7.57;;
3133;SDS011;1577;49.912;10.924;2023-02-28T01:13:17;69.15;;;7.45;;
3133;SDS011;1577;49.912;10.924;2023-02-28T01:15:43;68.20;;;7.10;;
3133;SDS011;1577;49.912;10.924;2023-02-28T01:18:15;71.30;;;7.57;;
3133;SDS011;1577;49.912;10.924;2023-02-28T01:20:41;69.97;;;7.83;;
3133;SDS011;1577;49.912;10.924;2023-02-28T01:23:08;69.70;;;7.60;;
3133;SDS011;1577;49.912;10.924;2023-02-28T01:25:34;71.60;;;7.43;;
3133;SDS011;1577;49.912;10.924;2023-02-28T01:28:00;74.90;;;7.63;;
3133;SDS011;1577;49.912;10.924;2023-02-28T01:30:26;71.57;;;8.53;;
3133;SDS011;1577;49.912;10.924;2023-02-28T01:32:51;68.80;;;7.40;;
3133;SDS011;1577;49.912;10.924;2023-02-28T01:35:18;69.65;;;8.27;;
3133;SDS011;1577;49.912;10.924;2023-02-28T01:37:44;72.20;;;8.20;;
3133;SDS011;1577;49.912;10.924;2023-02-28T01:40:10;69.40;;;7.40;;
3133;SDS011;1577;49.912;10.924;2023-02-28T01:42:37;71.03;;;8.77;;
3133;SDS011;1577;49.912;10.924;2023-02-28T01:47:52;70.78;;;8.20;;
3133;SDS011;1577;49.912;10.924;2023-02-28T01:50:23;67.38;;;6.88;;
3133;SDS011;1577;49.912;10.924;2023-02-28T01:52:53;69.15;;;7.22;;
3133;SDS011;1577;49.912;10.924;2023-02-28T01:55:22;69.97;;;7.65;;
3133;SDS011;1577;49.912;10.924;2023-02-28T01:57:54;68.32;;;7.50;;
3133;SDS011;1577;49.912;10.924;2023-02-28T02:00:22;71.18;;;7.90;;
3133;SDS011;1577;49.912;10.924;2023-02-28T02:02:54;70.75;;;8.00;;
3133;SDS011;1577;49.912;10.924;2023-02-28T02:05:25;69.95;;;8.10;;
3133;SDS011;1577;49.912;10.924;2023-02-28T02:07:56;69.50;;;7.20;;
3133;SDS011;1577;49.912;10.924;2023-02-28T02:10:28;70.70;;;7.97;;
3133;SDS011;1577;49.912;10.924;2023-02-28T02:27:43;72.57;;;8.18;;
3133;SDS011;1577;49.912;10.924;2023-02-28T02:35:54;70.18;;;7.55;;
3133;SDS011;1577;49.912;10.924;2023-02-28T02:46:33;70.32;;;8.68;;
3133;SDS011;1577;49.912;10.924;2023-02-28T02:49:05;73.47;;;9.52;;
3133;SDS011;1577;49.912;10.924;2023-02-28T02:51:34;69.82;;;8.15;;
3133;SDS011;1577;49.912;10.924;2023-02-28T02:54:05;73.35;;;9.60;;
3133;SDS011;1577;49.912;10.924;2023-02-28T02:56:36;71.03;;;8.90;;
3133;SDS011;1577;49.912;10.924;2023-02-28T02:59:06;71.13;;;8.80;;
3133;SDS011;1577;49.912;10.924;2023-02-28T03:01:36;72.45;;;9.38;;
3133;SDS011;1577;49.912;10.924;2023-02-28T03:04:08;71.78;;;9.82;;
3133;SDS011;1577;49.912;10.924;2023-02-28T03:06:37;72.82;;;9.30;;
3133;SDS011;1577;49.912;10.924;2023-02-28T03:09:02;71.80;;;8.87;;
3133;SDS011;1577;49.912;10.924;2023-02-28T03:11:29;70.97;;;8.98;;
3133;SDS011;1577;49.912;10.924;2023-02-28T03:22:14;71.75;;;8.73;;
3133;SDS011;1577;49.912;10.924;2023-02-28T03:27:41;73.40;;;9.60;;
3133;SDS011;1577;49.912;10.924;2023-02-28T03:30:23;70.70;;;7.90;;
3133;SDS011;1577;49.912;10.924;2023-02-28T03:32:53;67.93;;;6.32;;
3133;SDS011;1577;49.912;10.924;2023-02-28T03:35:21;70.43;;;8.43;;
3133;SDS011;1577;49.912;10.924;2023-02-28T03:37:50;71.32;;;8.63;;
3133;SDS011;1577;49.912;10.924;2023-02-28T03:40:20;69.03;;;8.10;;
3133;SDS011;1577;49.912;10.924;2023-02-28T03:42:51;73.38;;;8.95;;
3133;SDS011;1577;49.912;10.924;2023-02-28T03:45:25;71.75;;;8.02;;
3133;SDS011;1577;49.912;10.924;2023-02-28T03:48:00;71.63;;;7.85;;
3133;SDS011;1577;49.912;10.924;2023-02-28T03:55:49;70.53;;;7.35;;
3133;SDS011;1577;49.912;10.924;2023-02-28T04:01:15;74.30;;;8.40;;
3133;SDS011;1577;49.912;10.924;2023-02-28T04:03:48;68.55;;;6.75;;
3133;SDS011;1577;49.912;10.924;2023-02-28T04:06:19;69.68;;;7.40;;
3133;SDS011;1577;49.912;10.924;2023-02-28T04:08:46;70.47;;;8.10;;
3133;SDS011;1577;49.912;10.924;2023-02-28T04:11:30;69.88;;;7.43;;
3133;SDS011;1577;49.912;10.924;2023-02-28T04:14:02;71.75;;;7.72;;
3133;SDS011;1577;49.912;10.924;2023-02-28T04:16:30;69.00;;;7.65;;
3133;SDS011;1577;49.912;10.924;2023-02-28T04:18:57;70.20;;;7.63;;
3133;SDS011;1577;49.912;10.924;2023-02-28T04:21:30;70.32;;;8.23;;
3133;SDS011;1577;49.912;10.924;2023-02-28T04:24:07;72.25;;;8.13;;
3133;SDS011;1577;49.912;10.924;2023-02-28T04:26:42;71.47;;;7.95;;
3133;SDS011;1577;49.912;10.924;2023-02-28T04:29:11;71.57;;;6.47;;
3133;SDS011;1577;49.912;10.924;2023-02-28T04:31:38;71.13;;;9.18;;
3133;SDS011;1577;49.912;10.924;2023-02-28T04:34:03;71.40;;;7.17;;
3133;SDS011;1577;49.912;10.924;2023-02-28T04:36:29;70.60;;;8.13;;
3133;SDS011;1577;49.912;10.924;2023-02-28T04:38:55;71.90;;;8.63;;
3133;SDS011;1577;49.912;10.924;2023-02-28T04:41:21;72.15;;;8.00;;
3133;SDS011;1577;49.912;10.924;2023-02-28T04:43:47;68.30;;;6.93;;
3133;SDS011;1577;49.912;10.924;2023-02-28T04:46:13;70.47;;;7.90;;
3133;SDS011;1577;49.912;10.924;2023-02-28T04:48:39;70.90;;;8.00;;
3133;SDS011;1577;49.912;10.924;2023-02-28T04:51:08;71.60;;;7.93;;
3133;SDS011;1577;49.912;10.924;2023-02-28T04:53:35;71.18;;;7.63;;
3133;SDS011;1577;49.912;10.924;2023-02-28T04:56:02;71.82;;;7.55;;
3133;SDS011;1577;49.912;10.924;2023-02-28T04:58:28;72.15;;;7.70;;
3133;SDS011;1577;49.912;10.924;2023-02-28T05:00:57;70.53;;;7.32;;
3133;SDS011;1577;49.912;10.924;2023-02-28T05:03:27;70.88;;;7.70;;
3133;SDS011;1577;49.912;10.924;2023-02-28T05:05:53;69.57;;;7.27;;
3133;SDS011;1577;49.912;10.924;2023-02-28T05:08:19;69.60;;;6.97;;
3133;SDS011;1577;49.912;10.924;2023-02-28T05:10:44;70.23;;;6.80;;
3133;SDS011;1577;49.912;10.924;2023-02-28T05:13:13;70.20;;;8.10;;
3133;SDS011;1577;49.912;10.924;2023-02-28T05:15:38;70.32;;;8.05;;
3133;SDS011;1577;49.912;10.924;2023-02-28T05:18:04;70.90;;;6.40;;
3133;SDS011;1577;49.912;10.924;2023-02-28T05:20:30;71.30;;;8.27;;
3133;SDS011;1577;49.912;10.924;2023-02-28T05:22:56;69.07;;;7.17;;
3133;SDS011;1577;49.912;10.924;2023-02-28T05:25:24;74.88;;;8.75;;
3133;SDS011;1577;49.912;10.924;2023-02-28T05:27:49;68.30;;;6.83;;
3133;SDS011;1577;49.912;10.924;2023-02-28T05:30:15;73.60;;;9.93;;
3133;SDS011;1577;49.912;10.924;2023-02-28T05:32:41;70.67;;;8.47;;
3133;SDS011;1577;49.912;10.924;2023-02-28T05:35:10;72.90;;;9.20;;
3133;SDS011;1577;49.912;10.924;2023-02-28T05:37:37;70.30;;;8.63;;
3133;SDS011;1577;49.912;10.924;2023-02-28T05:40:03;69.60;;;7.90;;
3133;SDS011;1577;49.912;10.924;2023-02-28T05:42:40;70.35;;;8.77;;
3133;SDS011;1577;49.912;10.924;2023-02-28T05:45:06;72.37;;;8.63;;
3133;SDS011;1577;49.912;10.924;2023-02-28T05:47:33;71.65;;;9.73;;
3133;SDS011;1577;49.912;10.924;2023-02-28T05:49:59;72.22;;;9.15;;
3133;SDS011;1577;49.912;10.924;2023-02-28T05:52:25;77.00;;;8.25;;
3133;SDS011;1577;49.912;10.924;2023-02-28T05:54:51;72.57;;;8.40;;
3133;SDS011;1577;49.912;10.924;2023-02-28T05:57:17;71.30;;;8.87;;
3133;SDS011;1577;49.912;10.924;2023-02-28T05:59:42;75.67;;;8.80;;
3133;SDS011;1577;49.912;10.924;2023-02-28T06:02:10;70.07;;;8.60;;
3133;SDS011;1577;49.912;10.924;2023-02-28T06:04:38;69.88;;;7.55;;
3133;SDS011;1577;49.912;10.924;2023-02-28T06:07:05;71.13;;;7.78;;
3133;SDS011;1577;49.912;10.924;2023-02-28T06:09:31;68.60;;;6.53;;
3133;SDS011;1577;49.912;10.924;2023-02-28T06:11:57;68.90;;;7.10;;
3133;SDS011;1577;49.912;10.924;2023-02-28T06:14:24;75.07;;;9.73;;
3133;SDS011;1577;49.912;10.924;2023-02-28T06:16:50;71.25;;;8.85;;
3133;SDS011;1577;49.912;10.924;2023-02-28T06:19:16;75.87;;;9.53;;
3133;SDS011;1577;49.912;10.924;2023-02-28T06:21:44;72.43;;;8.98;;
3133;SDS011;1577;49.912;10.924;2023-02-28T06:24:13;71.78;;;8.88;;
3133;SDS011;1577;49.912;10.924;2023-02-28T06:26:39;76.10;;;10.00;;
3133;SDS011;1577;49.912;10.924;2023-02-28T06:29:04;75.60;;;9.53;;
3133;SDS011;1577;49.912;10.924;2023-02-28T06:31:30;74.23;;;9.80;;
3133;SDS011;1577;49.912;10.924;2023-02-28T06:33:55;75.77;;;9.70;;
3133;SDS011;1577;49.912;10.924;2023-02-28T06:36:21;72.50;;;8.50;;
3133;SDS011;1577;49.912;10.924;2023-02-28T06:38:47;71.77;;;8.93;;
3133;SDS011;1577;49.912;10.924;2023-02-28T06:41:19;72.72;;;9.75;;
3133;SDS011;1577;49.912;10.924;2023-02-28T06:43:46;71.88;;;9.25;;
3133;SDS011;1577;49.912;10.924;2023-02-28T06:46:12;74.20;;;10.57;;
3133;SDS011;1577;49.912;10.924;2023-02-28T06:48:42;72.47;;;10.48;;
3133;SDS011;1577;49.912;10.924;2023-02-28T06:51:10;75.00;;;10.80;;
3133;SDS011;1577;49.912;10.924;2023-02-28T06:53:38;73.30;;;9.80;;
3133;SDS011;1577;49.912;10.924;2023-02-28T06:56:05;70.80;;;8.30;;
3133;SDS011;1577;49.912;10.924;2023-02-28T06:58:32;75.45;;;10.82;;
3133;SDS011;1577;49.912;10.924;2023-02-28T07:00:58;76.70;;;12.07;;
3133;SDS011;1577;49.912;10.924;2023-02-28T07:03:23;76.67;;;10.23;;
3133;SDS011;1577;49.912;10.924;2023-02-28T07:05:49;75.50;;;10.93;;
3133;SDS011;1577;49.912;10.924;2023-02-28T07:08:15;81.65;;;12.68;;
3133;SDS011;1577;49.912;10.924;2023-02-28T07:10:41;73.77;;;11.10;;
3133;SDS011;1577;49.912;10.924;2023-02-28T07:13:07;73.70;;;10.93;;
3133;SDS011;1577;49.912;10.924;2023-02-28T07:15:33;76.18;;;12.20;;
3133;SDS011;1577;49.912;10.924;2023-02-28T07:18:00;74.53;;;11.15;;
3133;SDS011;1577;49.912;10.924;2023-02-28T07:20:26;76.60;;;11.07;;
3133;SDS011;1577;49.912;10.924;2023-02-28T07:22:51;75.40;;;11.40;;
3133;SDS011;1577;49.912;10.924;2023-02-28T07:25:26;75.60;;;11.00;;
3133;SDS011;1577;49.912;10.924;2023-02-28T07:27:53;77.05;;;11.95;;
3133;SDS011;1577;49.912;10.924;2023-02-28T07:30:20;75.65;;;11.48;;
3133;SDS011;1577;49.912;10.924;2023-02-28T07:32:45;75.30;;;10.50;;
3133;SDS011;1577;49.912;10.924;2023-02-28T07:35:12;74.30;;;9.37;;
3133;SDS011;1577;49.912;10.924;2023-02-28T07:37:43;76.67;;;10.77;;
3133;SDS011;1577;49.912;10.924;2023-02-28T07:40:14;76.67;;;10.60;;
3133;SDS011;1577;49.912;10.924;2023-02-28T07:42:40;77.53;;;10.60;;
3133;SDS011;1577;49.912;10.924;2023-02-28T07:45:06;74.00;;;10.30;;
3133;SDS011;1577;49.912;10.924;2023-02-28T07:47:33;76.27;;;11.27;;
3133;SDS011;1577;49.912;10.924;2023-02-28T07:49:59;75.50;;;10.47;;
3133;SDS011;1577;49.912;10.924;2023-02-28T07:52:24;74.90;;;9.50;;
3133;SDS011;1577;49.912;10.924;2023-02-28T07:54:50;78.57;;;9.57;;
3133;SDS011;1577;49.912;10.924;2023-02-28T07:57:16;74.17;;;9.57;;
3133;SDS011;1577;49.912;10.924;2023-02-28T07:59:42;73.60;;;9.17;;
3133;SDS011;1577;49.912;10.924;2023-02-28T08:02:18;72.40;;;8.77;;
3133;SDS011;1577;49.912;10.924;2023-02-28T08:04:44;75.77;;;8.87;;
3133;SDS011;1577;49.912;10.924;2023-02-28T08:07:12;72.43;;;9.27;;
3133;SDS011;1577;49.912;10.924;2023-02-28T08:09:38;73.50;;;8.07;;
3133;SDS011;1577;49.912;10.924;2023-02-28T08:12:07;75.00;;;8.93;;
3133;SDS011;1577;49.912;10.924;2023-02-28T08:14:34;75.13;;;9.70;;
3133;SDS011;1577;49.912;10.924;2023-02-28T08:17:00;72.70;;;8.67;;
3133;SDS011;1577;49.912;10.924;2023-02-28T08:19:26;71.80;;;7.57;;
3133;SDS011;1577;49.912;10.924;2023-02-28T08:21:52;74.57;;;9.20;;
3133;SDS011;1577;49.912;10.924;2023-02-28T08:24:18;73.57;;;9.43;;
3133;SDS011;1577;49.912;10.924;2023-02-28T08:26:43;73.53;;;8.40;;
3133;SDS011;1577;49.912;10.924;2023-02-28T08:29:09;74.80;;;8.77;;
3133;SDS011;1577;49.912;10.924;2023-02-28T08:31:34;72.60;;;8.87;;
3133;SDS011;1577;49.912;10.924;2023-02-28T08:34:04;72.57;;;8.87;;
3133;SDS011;1577;49.912;10.924;2023-02-28T08:36:31;75.07;;;10.30;;
3133;SDS011;1577;49.912;10.924;2023-02-28T08:38:57;74.13;;;9.20;;
3133;SDS011;1577;49.912;10.924;2023-02-28T08:41:23;73.03;;;9.93;;
3133;SDS011;1577;49.912;10.924;2023-02-28T08:43:49;75.30;;;10.60;;
3133;SDS011;1577;49.912;10.924;2023-02-28T08:46:14;74.40;;;10.07;;
3133;SDS011;1577;49.912;10.924;2023-02-28T08:48:40;75.07;;;11.30;;
3133;SDS011;1577;49.912;10.924;2023-02-28T08:51:07;75.43;;;10.70;;
3133;SDS011;1577;49.912;10.924;2023-02-28T08:53:38;73.20;;;12.13;;
3133;SDS011;1577;49.912;10.924;2023-02-28T08:56:06;74.37;;;11.60;;
3133;SDS011;1577;49.912;10.924;2023-02-28T08:58:33;74.63;;;11.77;;
3133;SDS011;1577;49.912;10.924;2023-02-28T09:00:59;82.23;;;10.00;;
3133;SDS011;1577;49.912;10.924;2023-02-28T09:03:25;72.33;;;10.00;;
3133;SDS011;1577;49.912;10.924;2023-02-28T09:05:55;73.13;;;9.90;;
3133;SDS011;1577;49.912;10.924;2023-02-28T09:08:24;70.80;;;8.70;;
3133;SDS011;1577;49.912;10.924;2023-02-28T09:10:51;72.87;;;7.97;;
3133;SDS011;1577;49.912;10.924;2023-02-28T09:13:17;73.50;;;9.47;;
3133;SDS011;1577;49.912;10.924;2023-02-28T09:15:43;75.97;;;10.30;;
3133;SDS011;1577;49.912;10.924;2023-02-28T09:18:09;78.17;;;10.57;;
3133;SDS011;1577;49.912;10.924;2023-02-28T09:20:37;75.07;;;11.27;;
3133;SDS011;1577;49.912;10.924;2023-02-28T09:23:04;76.67;;;11.23;;
3133;SDS011;1577;49.912;10.924;2023-02-28T09:25:30;74.17;;;10.40;;
3133;SDS011;1577;49.912;10.924;2023-02-28T09:27:56;74.70;;;10.10;;
3133;SDS011;1577;49.912;10.924;2023-02-28T09:30:21;75.10;;;10.90;;
3133;SDS011;1577;49.912;10.924;2023-02-28T09:32:47;74.23;;;10.07;;
3133;SDS011;1577;49.912;10.924;2023-02-28T09:35:17;74.60;;;10.02;;
3133;SDS011;1577;49.912;10.924;2023-02-28T09:37:43;74.47;;;10.50;;
3133;SDS011;1577;49.912;10.924;2023-02-28T09:40:10;74.63;;;9.10;;
3133;SDS011;1577;49.912;10.924;2023-02-28T09:42:37;73.93;;;10.13;;
3133;SDS011;1577;49.912;10.924;2023-02-28T09:45:06;75.75;;;11.80;;
3133;SDS011;1577;49.912;10.924;2023-02-28T09:47:39;74.40;;;10.00;;
3133;SDS011;1577;49.912;10.924;2023-02-28T09:50:43;76.90;;;10.67;;
3133;SDS011;1577;49.912;10.924;2023-02-28T09:53:22;75.60;;;10.00;;
3133;SDS011;1577;49.912;10.924;2023-02-28T09:56:15;79.85;;;11.50;;
3133;SDS011;1577;49.912;10.924;2023-02-28T10:07:50;75.45;;;10.05;;
3133;SDS011;1577;49.912;10.924;2023-02-28T10:10:18;74.65;;;9.77;;
3133;SDS011;1577;49.912;10.924;2023-02-28T10:12:47;76.47;;;10.30;;
3133;SDS011;1577;49.912;10.924;2023-02-28T10:15:16;76.43;;;9.85;;
3133;SDS011;1577;49.912;10.924;2023-02-28T10:17:42;76.70;;;9.30;;
3133;SDS011;1577;49.912;10.924;2023-02-28T10:20:13;76.32;;;10.50;;
3133;SDS011;1577;49.912;10.924;2023-02-28T10:25:33;75.10;;;9.98;;
3133;SDS011;1577;49.912;10.924;2023-02-28T10:30:42;72.57;;;9.43;;
3133;SDS011;1577;49.912;10.924;2023-02-28T10:33:31;77.77;;;10.80;;
3133;SDS011;1577;49.912;10.924;2023-02-28T10:35:59;74.35;;;10.13;;
3133;SDS011;1577;49.912;10.924;2023-02-28T10:38:28;76.68;;;9.25;;
3133;SDS011;1577;49.912;10.924;2023-02-28T10:41:09;77.17;;;10.50;;
3133;SDS011;1577;49.912;10.924;2023-02-28T10:43:39;74.38;;;9.35;;
3133;SDS011;1577;49.912;10.924;2023-02-28T10:48:39;76.47;;;9.90;;
3133;SDS011;1577;49.912;10.924;2023-02-28T10:51:08;75.95;;;10.65;;
3133;SDS011;1577;49.912;10.924;2023-02-28T10:53:51;74.67;;;9.90;;
3133;SDS011;1577;49.912;10.924;2023-02-28T10:56:19;74.77;;;10.30;;
3133;SDS011;1577;49.912;10.924;2023-02-28T10:59:00;76.60;;;10.63;;
3133;SDS011;1577;49.912;10.924;2023-02-28T11:03:57;73.10;;;9.13;;
3133;SDS011;1577;49.912;10.924;2023-02-28T11:06:24;74.53;;;10.30;;
3133;SDS011;1577;49.912;10.924;2023-02-28T11:08:59;79.05;;;10.75;;
3133;SDS011;1577;49.912;10.924;2023-02-28T11:11:29;76.33;;;10.33;;
3133;SDS011;1577;49.912;10.924;2023-02-28T11:14:06;74.90;;;10.40;;
3133;SDS011;1577;49.912;10.924;2023-02-28T11:16:50;78.70;;;12.00;;
3133;SDS011;1577;49.912;10.924;2023-02-28T11:19:22;77.72;;;11.88;;
3133;SDS011;1577;49.912;10.924;2023-02-28T11:21:56;72.40;;;9.50;;
3133;SDS011;1577;49.912;10.924;2023-02-28T11:24:28;75.60;;;10.60;;
3133;SDS011;1577;49.912;10.924;2023-02-28T11:26:58;76.95;;;11.07;;
3133;SDS011;1577;49.912;10.924;2023-02-28T11:29:30;75.60;;;11.07;;
3133;SDS011;1577;49.912;10.924;2023-02-28T11:32:18;73.93;;;9.40;;
3133;SDS011;1577;49.912;10.924;2023-02-28T11:34:46;76.27;;;10.97;;
3133;SDS011;1577;49.912;10.924;2023-02-28T11:37:24;79.95;;;10.52;;
3133;SDS011;1577;49.912;10.924;2023-02-28T11:39:51;77.00;;;10.83;;
3133;SDS011;1577;49.912;10.924;2023-02-28T11:47:48;76.38;;;11.35;;
3133;SDS011;1577;49.912;10.924;2023-02-28T11:53:47;74.27;;;10.07;;
3133;SDS011;1577;49.912;10.924;2023-02-28T12:02:25;77.97;;;10.37;;
3133;SDS011;1577;49.912;10.924;2023-02-28T12:10:23;77.10;;;10.10;;
3133;SDS011;1577;49.912;10.924;2023-02-28T12:13:07;75.30;;;10.13;;
3133;SDS011;1577;49.912;10.924;2023-02-28T12:26:57;77.63;;;9.80;;
3133;SDS011;1577;49.912;10.924;2023-02-28T12:29:31;73.97;;;9.93;;
3133;SDS011;1577;49.912;10.924;2023-02-28T12:34:38;73.60;;;10.60;;
3133;SDS011;1577;49.912;10.924;2023-02-28T12:37:13;72.47;;;8.13;;
3133;SDS011;1577;49.912;10.924;2023-02-28T12:39:45;73.40;;;8.70;;
3133;SDS011;1577;49.912;10.924;2023-02-28T12:42:21;75.90;;;9.85;;
3133;SDS011;1577;49.912;10.924;2023-02-28T12:45:03;72.80;;;8.65;;
3133;SDS011;1577;49.912;10.924;2023-02-28T12:47:35;75.43;;;10.25;;
3133;SDS011;1577;49.912;10.924;2023-02-28T12:50:04;71.78;;;9.15;;
3133;SDS011;1577;49.912;10.924;2023-02-28T12:55:45;77.43;;;10.00;;
3133;SDS011;1577;49.912;10.924;2023-02-28T12:58:25;76.35;;;10.13;;
3133;SDS011;1577;49.912;10.924;2023-02-28T13:04:11;74.17;;;10.43;;
3133;SDS011;1577;49.912;10.924;2023-02-28T13:09:57;78.95;;;11.50;;
3133;SDS011;1577;49.912;10.924;2023-02-28T13:12:24;76.15;;;10.30;;
3133;SDS011;1577;49.912;10.924;2023-02-28T13:14:51;78.87;;;9.97;;
3133;SDS011;1577;49.912;10.924;2023-02-28T13:17:37;75.40;;;8.27;;
3133;SDS011;1577;49.912;10.924;2023-02-28T13:20:15;74.50;;;8.93;;
3133;SDS011;1577;49.912;10.924;2023-02-28T13:22:45;73.37;;;9.00;;
3133;SDS011;1577;49.912;10.924;2023-02-28T13:27:47;78.50;;;10.70;;
3133;SDS011;1577;49.912;10.924;2023-02-28T13:33:28;77.70;;;10.93;;
3133;SDS011;1577;49.912;10.924;2023-02-28T13:38:51;79.57;;;10.93;;
3133;SDS011;1577;49.912;10.924;2023-02-28T13:44:11;77.33;;;10.97;;
3133;SDS011;1577;49.912;10.924;2023-02-28T13:49:20;74.67;;;10.37;;
3133;SDS011;1577;49.912;10.924;2023-02-28T14:05:31;73.90;;;10.13;;
3133;SDS011;1577;49.912;10.924;2023-02-28T14:07:59;73.37;;;10.07;;
3133;SDS011;1577;49.912;10.924;2023-02-28T14:10:31;73.40;;;8.70;;
3133;SDS011;1577;49.912;10.924;2023-02-28T14:16:05;75.90;;;10.27;;
3133;SDS011;1577;49.912;10.924;2023-02-28T14:18:34;77.83;;;11.37;;
3133;SDS011;1577;49.912;10.924;2023-02-28T14:21:08;75.17;;;10.73;;
3133;SDS011;1577;49.912;10.924;2023-02-28T14:23:46;75.97;;;11.53;;
3133;SDS011;1577;49.912;10.924;2023-02-28T14:37:10;72.17;;;8.80;;
3133;SDS011;1577;49.912;10.924;2023-02-28T14:39:41;76.33;;;10.93;;
3133;SDS011;1577;49.912;10.924;2023-02-28T14:42:28;73.83;;;10.30;;
3133;SDS011;1577;49.912;10.924;2023-02-28T14:45:00;78.87;;;11.30;;
3133;SDS011;1577;49.912;10.924;2023-02-28T14:47:35;74.87;;;9.47;;
3133;SDS011;1577;49.912;10.924;2023-02-28T14:50:02;75.70;;;10.83;;
3133;SDS011;1577;49.912;10.924;2023-02-28T14:52:30;74.60;;;7.73;;
3133;SDS011;1577;49.912;10.924;2023-02-28T14:54:58;76.80;;;10.57;;
3133;SDS011;1577;49.912;10.924;2023-02-28T14:57:52;74.57;;;10.30;;
3133;SDS011;1577;49.912;10.924;2023-02-28T15:00:27;75.67;;;9.97;;
3133;SDS011;1577;49.912;10.924;2023-02-28T15:02:55;75.50;;;9.30;;
3133;SDS011;1577;49.912;10.924;2023-02-28T15:05:24;76.27;;;9.90;;
3133;SDS011;1577;49.912;10.924;2023-02-28T15:10:43;74.57;;;9.07;;
3133;SDS011;1577;49.912;10.924;2023-02-28T15:13:15;73.47;;;9.30;;
3133;SDS011;1577;49.912;10.924;2023-02-28T15:15:44;87.72;;;15.18;;
3133;SDS011;1577;49.912;10.924;2023-02-28T15:18:21;73.87;;;9.20;;
3133;SDS011;1577;49.912;10.924;2023-02-28T15:20:49;77.17;;;11.03;;
3133;SDS011;1577;49.912;10.924;2023-02-28T15:23:15;74.50;;;10.63;;
3133;SDS011;1577;49.912;10.924;2023-02-28T15:25:42;75.77;;;11.40;;
3133;SDS011;1577;49.912;10.924;2023-02-28T15:28:11;76.67;;;10.00;;
3133;SDS011;1577;49.912;10.924;2023-02-28T15:30:58;73.77;;;10.50;;
3133;SDS011;1577;49.912;10.924;2023-02-28T15:33:32;81.40;;;11.00;;
3133;SDS011;1577;49.912;10.924;2023-02-28T15:36:32;77.67;;;11.73;;
3133;SDS011;1577;49.912;10.924;2023-02-28T15:38:52;74.17;;;9.97;;
3133;SDS011;1577;49.912;10.924;2023-02-28T15:41:25;81.50;;;13.60;;
3133;SDS011;1577;49.912;10.924;2023-02-28T15:47:33;76.20;;;10.57;;
3133;SDS011;1577;49.912;10.924;2023-02-28T15:52:17;78.50;;;12.10;;
3133;SDS011;1577;49.912;10.924;2023-02-28T15:54:53;75.00;;;9.73;;
3133;SDS011;1577;49.912;10.924;2023-02-28T15:57:20;77.23;;;10.20;;
3133;SDS011;1577;49.912;10.924;2023-02-28T15:59:50;77.37;;;11.00;;
3133;SDS011;1577;49.912;10.924;2023-02-28T16:02:20;75.97;;;10.87;;
3133;SDS011;1577;49.912;10.924;2023-02-28T16:04:54;76.70;;;10.37;;
3133;SDS011;1577;49.912;10.924;2023-02-28T16:07:25;77.07;;;11.07;;
3133;SDS011;1577;49.912;10.924;2023-02-28T16:09:51;75.67;;;10.50;;
3133;SDS011;1577;49.912;10.924;2023-02-28T16:12:17;79.40;;;11.90;;
3133;SDS011;1577;49.912;10.924;2023-02-28T16:14:44;78.90;;;10.63;;
3133;SDS011;1577;49.912;10.924;2023-02-28T16:17:21;75.63;;;10.10;;
3133;SDS011;1577;49.912;10.924;2023-02-28T16:19:49;75.97;;;10.17;;
3133;SDS011;1577;49.912;10.924;2023-02-28T16:22:15;73.77;;;10.13;;
3133;SDS011;1577;49.912;10.924;2023-02-28T16:24:40;76.87;;;11.50;;
3133;SDS011;1577;49.912;10.924;2023-02-28T16:27:06;73.60;;;10.13;;
3133;SDS011;1577;49.912;10.924;2023-02-28T16:29:43;76.57;;;11.13;;
3133;SDS011;1577;49.912;10.924;2023-02-28T16:32:10;75.27;;;10.93;;
3133;SDS011;1577;49.912;10.924;2023-02-28T16:34:37;75.17;;;10.67;;
3133;SDS011;1577;49.912;10.924;2023-02-28T16:37:04;75.47;;;10.90;;
3133;SDS011;1577;49.912;10.924;2023-02-28T16:39:35;75.28;;;10.68;;
3133;SDS011;1577;49.912;10.924;2023-02-28T16:42:01;77.03;;;11.30;;
3133;SDS011;1577;49.912;10.924;2023-02-28T16:44:32;78.53;;;10.90;;
3133;SDS011;1577;49.912;10.924;2023-02-28T16:47:00;83.47;;;12.73;;
3133;SDS011;1577;49.912;10.924;2023-02-28T16:49:26;87.97;;;14.77;;
3133;SDS011;1577;49.912;10.924;2023-02-28T16:51:52;74.73;;;10.20;;
3133;SDS011;1577;49.912;10.924;2023-02-28T16:54:18;74.20;;;10.37;;
3133;SDS011;1577;49.912;10.924;2023-02-28T16:56:45;77.10;;;11.60;;
3133;SDS011;1577;49.912;10.924;2023-02-28T16:59:12;80.03;;;12.35;;
3133;SDS011;1577;49.912;10.924;2023-02-28T17:01:38;77.78;;;11.00;;
3133;SDS011;1577;49.912;10.924;2023-02-28T17:04:04;74.90;;;10.37;;
3133;SDS011;1577;49.912;10.924;2023-02-28T17:06:30;77.87;;;11.33;;
3133;SDS011;1577;49.912;10.924;2023-02-28T17:08:56;77.10;;;11.60;;
3133;SDS011;1577;49.912;10.924;2023-02-28T17:11:23;78.38;;;12.05;;
3133;SDS011;1577;49.912;10.924;2023-02-28T17:13:50;77.85;;;11.52;;
3133;SDS011;1577;49.912;10.924;2023-02-28T17:16:32;79.97;;;13.60;;
3133;SDS011;1577;49.912;10.924;2023-02-28T17:19:00;79.35;;;13.20;;
3133;SDS011;1577;49.912;10.924;2023-02-28T17:21:28;76.18;;;11.05;;
3133;SDS011;1577;49.912;10.924;2023-02-28T17:23:55;75.93;;;11.05;;
3133;SDS011;1577;49.912;10.924;2023-02-28T17:26:21;79.00;;;11.65;;
3133;SDS011;1577;49.912;10.924;2023-02-28T17:28:50;76.90;;;12.35;;
3133;SDS011;1577;49.912;10.924;2023-02-28T17:31:16;78.53;;;12.60;;
3133;SDS011;1577;49.912;10.924;2023-02-28T17:33:42;84.68;;;13.02;;
3133;SDS011;1577;49.912;10.924;2023-02-28T17:36:10;82.80;;;13.90;;
3133;SDS011;1577;49.912;10.924;2023-02-28T17:38:39;83.82;;;13.43;;